CDT,Max TemperatureF,Mean TemperatureF,Min TemperatureF,Max Dew PointF,MeanDew PointF,Min DewpointF,Max Humidity, Mean Humidity, Min Humidity, Max Sea Level PressureIn, Mean Sea Level PressureIn, Min Sea Level PressureIn, Max VisibilityMiles, Mean VisibilityMiles, Min VisibilityMiles, Max Wind SpeedMPH, Mean Wind SpeedMPH, Max Gust SpeedMPH,PrecipitationIn, CloudCover, Events, WindDirDegrees
2013-3-1,63,50,37,12,8,2,36,21,9,30.26,30.21,30.14,10,10,10,26,13,31,0.00,0,,269
2013-3-2,66,50,34,16,11,8,37,23,12,30.37,30.27,30.14,10,10,10,10,7,,0.00,0,,161
2013-3-3,86,64,43,14,6,-12,30,14,4,30.12,29.92,29.75,10,10,10,18,12,37,0.00,0,,216
2013-3-4,84,70,55,20,-2,-24,17,8,4,29.84,29.73,29.65,10,10,7,25,14,33,0.00,1,,244
2013-3-5,61,49,37,36,23,18,60,38,20,30.38,30.26,29.92,10,10,6,28,14,43,0.00,1,,55
2013-3-6,72,56,39,19,15,7,43,24,13,30.28,30.12,29.98,10,10,10,24,13,30,0.00,0,,145
2013-3-7,79,60,42,43,22,14,55,27,11,30.00,29.92,29.83,10,10,9,29,14,39,0.00,0,,146
2013-3-8,82,68,55,54,43,30,78,49,15,29.93,29.82,29.70,10,10,10,26,17,38,0.00,2,,161
2013-3-9,71,62,52,53,33,15,89,42,18,29.83,29.71,29.64,10,10,9,23,14,30,0.00,1,,297
2013-3-10,55,46,37,23,15,9,48,29,16,30.15,30.03,29.86,10,10,10,18,11,31,0.00,2,,336
2013-3-11,71,53,36,18,13,9,38,24,10,30.15,30.04,29.92,10,10,10,15,10,17,0.00,0,,235
2013-3-12,69,57,46,24,15,8,33,20,13,30.25,30.06,29.92,10,10,10,15,11,23,0.00,0,,322
2013-3-13,75,56,37,27,21,16,50,29,11,30.36,30.24,30.13,10,10,10,15,7,16,0.00,0,,142
2013-3-14,82,63,45,34,26,14,52,28,8,30.19,30.12,30.05,10,10,10,17,11,22,0.00,0,,156
2013-3-15,88,68,50,37,24,10,48,24,6,30.12,29.95,29.81,10,9,2,17,11,26,0.00,0,,190
2013-3-16,91,73,55,37,14,0,44,15,4,29.80,29.69,29.58,10,10,10,21,14,30,0.00,0,,242
2013-3-17,84,64,46,39,18,3,59,21,5,29.83,29.69,29.58,10,10,10,16,11,26,0.00,0,,283
2013-3-18,81,67,55,18,13,9,19,13,7,30.00,29.82,29.72,10,10,10,17,12,23,0.00,0,,272
2013-3-19,84,68,53,38,19,14,44,18,8,30.00,29.85,29.76,10,10,10,20,11,29,0.00,0,,255
2013-3-20,68,54,41,42,37,33,79,52,32,30.25,30.08,29.87,10,10,10,15,8,26,0.00,0,,86
2013-3-21,89,69,50,45,29,8,77,34,7,29.84,29.63,29.49,10,10,10,23,13,33,0.00,0,,248
2013-3-22,79,66,54,33,24,16,35,20,13,29.68,29.61,29.56,10,10,10,13,10,20,0.00,0,,253
2013-3-23,81,66,52,33,15,-15,47,20,5,29.98,29.70,29.59,10,9,3,31,13,43,0.00,2,,274
2013-3-24,52,39,27,21,11,4,56,31,15,30.22,30.10,29.98,10,9,4,22,13,25,0.00,2,,9
2013-3-25,55,42,30,13,11,7,43,27,19,30.27,30.17,30.04,10,10,10,18,9,23,0.00,0,,110
2013-3-26,66,50,35,22,11,6,32,22,12,30.27,30.18,30.06,10,10,10,23,13,29,0.00,0,,146
2013-3-27,84,62,43,43,29,24,58,34,13,30.04,29.96,29.86,10,10,10,26,15,36,0.00,0,,157
2013-3-28,84,66,51,52,44,36,80,51,21,29.99,29.94,29.90,10,10,10,23,14,30,0.00,1,,143
2013-3-29,82,68,55,53,48,31,87,56,16,30.00,29.94,29.88,10,10,10,21,13,29,0.00,0,,151
2013-3-30,88,70,52,53,33,17,83,36,8,29.96,29.89,29.81,10,10,10,16,8,21,0.00,0,,240
2013-3-31,80,70,62,47,39,30,56,33,17,29.92,29.86,29.80,10,10,10,17,7,29,0.00,0,,51